Terminal Aerodrome Forecast
Issued by NWS

Home | Current Version | Previous Version | Graphics & Text | Print | Product List | Glossary On
Versions: 1 2 3 4 5 6 7 8 9 10 11 12
128
FTUS43 KGRB 131733
TAFAUW
TAF
KAUW 131733Z 1318/1418 30004KT P6SM SCT100 BKN200
     FM132000 VRB03KT P6SM SCT040 OVC120
     FM140200 VRB03KT P6SM -SN SCT018 OVC050
     FM140700 VRB03KT P6SM SCT050 BKN200
     FM141100 25005KT P6SM FEW200=

USA.gov is the U.S. government's official web portal to all federal, state and local government web resources and services.